sensor_id;sensor_type;location;lat;lon;timestamp;pressure;altitude;pressure_sealevel;temperature;humidity
68941;BME280;55982;51.476;7.552;2023-03-23T00:01:07;98654.13;;;11.25;100.00
68941;BME280;55982;51.476;7.552;2023-03-23T00:03:35;98649.06;;;11.22;100.00
68941;BME280;55982;51.476;7.552;2023-03-23T00:06:01;98650.91;;;11.20;100.00
68941;BME280;55982;51.476;7.552;2023-03-23T00:08:31;98652.09;;;11.14;100.00
68941;BME280;55982;51.476;7.552;2023-03-23T00:10:57;98646.31;;;11.07;100.00
68941;BME280;55982;51.476;7.552;2023-03-23T00:13:26;98646.50;;;11.04;100.00
68941;BME280;55982;51.476;7.552;2023-03-23T00:15:52;98640.34;;;11.05;100.00
68941;BME280;55982;51.476;7.552;2023-03-23T00:18:19;98645.66;;;11.04;100.00
68941;BME280;55982;51.476;7.552;2023-03-23T00:20:49;98651.88;;;11.01;100.00
68941;BME280;55982;51.476;7.552;2023-03-23T00:23:16;98641.41;;;11.01;100.00
68941;BME280;55982;51.476;7.552;2023-03-23T00:25:46;98628.34;;;11.01;100.00
68941;BME280;55982;51.476;7.552;2023-03-23T00:28:12;98624.19;;;10.97;100.00
68941;BME280;55982;51.476;7.552;2023-03-23T00:30:39;98627.75;;;10.96;100.00
68941;BME280;55982;51.476;7.552;2023-03-23T00:33:04;98629.28;;;11.00;100.00
68941;BME280;55982;51.476;7.552;2023-03-23T00:35:30;98622.00;;;11.05;100.00
68941;BME280;55982;51.476;7.552;2023-03-23T00:37:59;98629.88;;;11.05;100.00
68941;BME280;55982;51.476;7.552;2023-03-23T00:40:25;98625.22;;;11.11;100.00
68941;BME280;55982;51.476;7.552;2023-03-23T00:42:51;98624.31;;;11.12;100.00
68941;BME280;55982;51.476;7.552;2023-03-23T00:45:16;98616.13;;;11.18;100.00
68941;BME280;55982;51.476;7.552;2023-03-23T00:47:42;98614.25;;;11.20;100.00
68941;BME280;55982;51.476;7.552;2023-03-23T00:50:12;98611.56;;;11.21;100.00
68941;BME280;55982;51.476;7.552;2023-03-23T00:52:39;98614.09;;;11.23;100.00
68941;BME280;55982;51.476;7.552;2023-03-23T00:55:05;98602.75;;;11.22;100.00
68941;BME280;55982;51.476;7.552;2023-03-23T00:57:31;98603.63;;;11.23;100.00
68941;BME280;55982;51.476;7.552;2023-03-23T00:59:56;98616.78;;;11.21;100.00
68941;BME280;55982;51.476;7.552;2023-03-23T01:02:22;98604.28;;;11.26;100.00
68941;BME280;55982;51.476;7.552;2023-03-23T01:04:50;98612.91;;;11.28;100.00
68941;BME280;55982;51.476;7.552;2023-03-23T01:07:18;98608.50;;;11.29;100.00
68941;BME280;55982;51.476;7.552;2023-03-23T01:09:44;98603.09;;;11.32;100.00
68941;BME280;55982;51.476;7.552;2023-03-23T01:12:10;98597.53;;;11.38;100.00
68941;BME280;55982;51.476;7.552;2023-03-23T01:14:36;98591.72;;;11.33;100.00
68941;BME280;55982;51.476;7.552;2023-03-23T01:17:01;98595.09;;;11.35;100.00
68941;BME280;55982;51.476;7.552;2023-03-23T01:19:26;98593.66;;;11.45;100.00
68941;BME280;55982;51.476;7.552;2023-03-23T01:21:52;98590.75;;;11.49;100.00
68941;BME280;55982;51.476;7.552;2023-03-23T01:24:17;98582.13;;;11.47;100.00
68941;BME280;55982;51.476;7.552;2023-03-23T01:26:42;98588.03;;;11.51;100.00
68941;BME280;55982;51.476;7.552;2023-03-23T01:29:08;98589.56;;;11.55;100.00
68941;BME280;55982;51.476;7.552;2023-03-23T01:31:33;98604.09;;;11.60;100.00
68941;BME280;55982;51.476;7.552;2023-03-23T01:34:01;98603.25;;;11.60;100.00
68941;BME280;55982;51.476;7.552;2023-03-23T01:36:28;98601.75;;;11.56;100.00
68941;BME280;55982;51.476;7.552;2023-03-23T01:39:01;98609.50;;;11.42;100.00
68941;BME280;55982;51.476;7.552;2023-03-23T01:41:28;98604.63;;;11.36;100.00
68941;BME280;55982;51.476;7.552;2023-03-23T01:46:50;98611.72;;;11.18;100.00
68941;BME280;55982;51.476;7.552;2023-03-23T01:49:19;98602.41;;;11.13;100.00
68941;BME280;55982;51.476;7.552;2023-03-23T01:51:49;98601.94;;;11.06;100.00
68941;BME280;55982;51.476;7.552;2023-03-23T01:54:18;98599.72;;;10.98;100.00
68941;BME280;55982;51.476;7.552;2023-03-23T01:57:22;98604.97;;;10.98;100.00
68941;BME280;55982;51.476;7.552;2023-03-23T01:59:42;98607.41;;;11.01;100.00
68941;BME280;55982;51.476;7.552;2023-03-23T02:02:10;98610.19;;;10.98;100.00
68941;BME280;55982;51.476;7.552;2023-03-23T02:04:37;98613.91;;;10.94;100.00
68941;BME280;55982;51.476;7.552;2023-03-23T02:07:03;98618.09;;;10.97;100.00
68941;BME280;55982;51.476;7.552;2023-03-23T02:09:29;98612.06;;;10.96;100.00
68941;BME280;55982;51.476;7.552;2023-03-23T02:11:56;98639.13;;;10.95;100.00
68941;BME280;55982;51.476;7.552;2023-03-23T02:14:23;98606.97;;;10.93;100.00
68941;BME280;55982;51.476;7.552;2023-03-23T02:17:07;98605.38;;;10.91;100.00
68941;BME280;55982;51.476;7.552;2023-03-23T02:28:11;98554.63;;;10.78;100.00
68941;BME280;55982;51.476;7.552;2023-03-23T02:36:04;98547.72;;;10.77;100.00
68941;BME280;55982;51.476;7.552;2023-03-23T02:38:36;98534.47;;;10.80;100.00
68941;BME280;55982;51.476;7.552;2023-03-23T02:41:03;98531.78;;;10.81;100.00
68941;BME280;55982;51.476;7.552;2023-03-23T02:43:50;98533.56;;;10.81;100.00
68941;BME280;55982;51.476;7.552;2023-03-23T02:46:15;98536.06;;;10.82;100.00
68941;BME280;55982;51.476;7.552;2023-03-23T02:48:43;98531.16;;;10.76;100.00
68941;BME280;55982;51.476;7.552;2023-03-23T02:51:10;98529.31;;;10.78;100.00
68941;BME280;55982;51.476;7.552;2023-03-23T02:53:40;98552.09;;;10.76;100.00
68941;BME280;55982;51.476;7.552;2023-03-23T02:56:08;98534.88;;;10.72;100.00
68941;BME280;55982;51.476;7.552;2023-03-23T02:58:34;98524.25;;;10.75;100.00
68941;BME280;55982;51.476;7.552;2023-03-23T03:01:45;98515.81;;;10.70;100.00
68941;BME280;55982;51.476;7.552;2023-03-23T03:04:05;98513.53;;;10.80;100.00
68941;BME280;55982;51.476;7.552;2023-03-23T03:06:55;98514.97;;;10.85;100.00
68941;BME280;55982;51.476;7.552;2023-03-23T03:12:13;98508.25;;;10.81;100.00
68941;BME280;55982;51.476;7.552;2023-03-23T03:14:46;98507.06;;;10.71;100.00
68941;BME280;55982;51.476;7.552;2023-03-23T03:17:24;98501.81;;;10.71;100.00
68941;BME280;55982;51.476;7.552;2023-03-23T03:19:55;98498.44;;;10.69;100.00
68941;BME280;55982;51.476;7.552;2023-03-23T03:22:23;98496.59;;;10.71;100.00
68941;BME280;55982;51.476;7.552;2023-03-23T03:24:55;98488.13;;;10.66;100.00
68941;BME280;55982;51.476;7.552;2023-03-23T03:27:23;98510.75;;;10.67;100.00
68941;BME280;55982;51.476;7.552;2023-03-23T03:29:53;98509.66;;;10.71;100.00
68941;BME280;55982;51.476;7.552;2023-03-23T03:32:23;98508.56;;;10.75;100.00
68941;BME280;55982;51.476;7.552;2023-03-23T03:34:50;98501.13;;;10.83;100.00
68941;BME280;55982;51.476;7.552;2023-03-23T03:37:16;98493.69;;;10.91;100.00
68941;BME280;55982;51.476;7.552;2023-03-23T03:39:43;98505.03;;;10.92;100.00
68941;BME280;55982;51.476;7.552;2023-03-23T03:42:08;98499.97;;;10.89;100.00
68941;BME280;55982;51.476;7.552;2023-03-23T03:44:34;98484.00;;;10.93;100.00
68941;BME280;55982;51.476;7.552;2023-03-23T03:46:59;98498.78;;;10.94;100.00
68941;BME280;55982;51.476;7.552;2023-03-23T03:49:25;98496.75;;;10.99;100.00
68941;BME280;55982;51.476;7.552;2023-03-23T03:51:51;98497.41;;;11.03;100.00
68941;BME280;55982;51.476;7.552;2023-03-23T03:54:17;98494.53;;;11.07;100.00
68941;BME280;55982;51.476;7.552;2023-03-23T03:56:42;98501.81;;;11.02;100.00
68941;BME280;55982;51.476;7.552;2023-03-23T03:59:09;98507.72;;;11.06;100.00
68941;BME280;55982;51.476;7.552;2023-03-23T04:01:36;98505.78;;;11.10;100.00
68941;BME280;55982;51.476;7.552;2023-03-23T04:04:02;98501.09;;;11.15;100.00
68941;BME280;55982;51.476;7.552;2023-03-23T04:06:29;98501.28;;;11.12;100.00
68941;BME280;55982;51.476;7.552;2023-03-23T04:08:56;98499.53;;;11.12;100.00
68941;BME280;55982;51.476;7.552;2023-03-23T04:11:21;98501.09;;;11.15;100.00
68941;BME280;55982;51.476;7.552;2023-03-23T04:13:46;98489.72;;;11.16;100.00
68941;BME280;55982;51.476;7.552;2023-03-23T04:16:12;98503.81;;;11.13;100.00
68941;BME280;55982;51.476;7.552;2023-03-23T04:18:37;98501.09;;;11.15;100.00
68941;BME280;55982;51.476;7.552;2023-03-23T04:21:04;98493.25;;;11.15;100.00
68941;BME280;55982;51.476;7.552;2023-03-23T04:23:30;98493.84;;;11.20;100.00
68941;BME280;55982;51.476;7.552;2023-03-23T04:25:59;98504.50;;;11.17;100.00
68941;BME280;55982;51.476;7.552;2023-03-23T04:28:25;98500.63;;;11.24;100.00
68941;BME280;55982;51.476;7.552;2023-03-23T04:30:51;98501.28;;;11.27;100.00
68941;BME280;55982;51.476;7.552;2023-03-23T04:33:22;98503.38;;;11.21;100.00
68941;BME280;55982;51.476;7.552;2023-03-23T04:35:51;98509.38;;;11.23;100.00
68941;BME280;55982;51.476;7.552;2023-03-23T04:38:17;98495.38;;;11.24;100.00
68941;BME280;55982;51.476;7.552;2023-03-23T04:40:46;98495.19;;;11.27;100.00
68941;BME280;55982;51.476;7.552;2023-03-23T04:43:12;98500.34;;;11.28;100.00
68941;BME280;55982;51.476;7.552;2023-03-23T04:45:38;98496.97;;;11.26;100.00
68941;BME280;55982;51.476;7.552;2023-03-23T04:48:07;98492.56;;;11.27;100.00
68941;BME280;55982;51.476;7.552;2023-03-23T04:50:32;98467.06;;;11.30;100.00
68941;BME280;55982;51.476;7.552;2023-03-23T04:52:59;98493.31;;;11.29;100.00
68941;BME280;55982;51.476;7.552;2023-03-23T04:55:30;98489.94;;;11.27;100.00
68941;BME280;55982;51.476;7.552;2023-03-23T04:57:56;98497.81;;;11.27;100.00
68941;BME280;55982;51.476;7.552;2023-03-23T05:00:25;98494.09;;;11.31;100.00
68941;BME280;55982;51.476;7.552;2023-03-23T05:02:51;98489.00;;;11.28;100.00
68941;BME280;55982;51.476;7.552;2023-03-23T05:05:17;98494.84;;;11.33;100.00
68941;BME280;55982;51.476;7.552;2023-03-23T05:07:43;98504.31;;;11.35;100.00
68941;BME280;55982;51.476;7.552;2023-03-23T05:10:10;98507.00;;;11.34;100.00
68941;BME280;55982;51.476;7.552;2023-03-23T05:12:37;98510.38;;;11.36;100.00
68941;BME280;55982;51.476;7.552;2023-03-23T05:15:04;98501.09;;;11.30;100.00
68941;BME280;55982;51.476;7.552;2023-03-23T05:17:29;98511.41;;;11.33;100.00
68941;BME280;55982;51.476;7.552;2023-03-23T05:19:57;98513.94;;;11.35;100.00
68941;BME280;55982;51.476;7.552;2023-03-23T05:22:25;98506.06;;;11.35;100.00
68941;BME280;55982;51.476;7.552;2023-03-23T05:24:51;98521.19;;;11.30;100.00
68941;BME280;55982;51.476;7.552;2023-03-23T05:27:17;98522.88;;;11.31;100.00
68941;BME280;55982;51.476;7.552;2023-03-23T05:29:44;98518.66;;;11.28;100.00
68941;BME280;55982;51.476;7.552;2023-03-23T05:32:11;98514.09;;;11.32;100.00
68941;BME280;55982;51.476;7.552;2023-03-23T05:34:37;98519.81;;;11.38;100.00
68941;BME280;55982;51.476;7.552;2023-03-23T05:37:03;98526.06;;;11.36;100.00
68941;BME280;55982;51.476;7.552;2023-03-23T05:39:29;98530.56;;;11.34;100.00
68941;BME280;55982;51.476;7.552;2023-03-23T05:41:55;98512.06;;;11.37;100.00
68941;BME280;55982;51.476;7.552;2023-03-23T05:44:21;98524.06;;;11.41;100.00
68941;BME280;55982;51.476;7.552;2023-03-23T05:46:47;98522.19;;;11.43;100.00
68941;BME280;55982;51.476;7.552;2023-03-23T05:49:13;98533.16;;;11.49;100.00
68941;BME280;55982;51.476;7.552;2023-03-23T05:51:41;98528.75;;;11.50;100.00
68941;BME280;55982;51.476;7.552;2023-03-23T05:54:07;98540.91;;;11.51;100.00
68941;BME280;55982;51.476;7.552;2023-03-23T05:56:32;98538.13;;;11.54;100.00
68941;BME280;55982;51.476;7.552;2023-03-23T05:58:58;98539.03;;;11.53;100.00
68941;BME280;55982;51.476;7.552;2023-03-23T06:01:24;98539.03;;;11.53;100.00
68941;BME280;55982;51.476;7.552;2023-03-23T06:03:50;98537.19;;;11.55;100.00
68941;BME280;55982;51.476;7.552;2023-03-23T06:06:20;98526.72;;;11.55;100.00
68941;BME280;55982;51.476;7.552;2023-03-23T06:08:53;98534.41;;;11.58;100.00
68941;BME280;55982;51.476;7.552;2023-03-23T06:11:21;98544.13;;;11.56;100.00
68941;BME280;55982;51.476;7.552;2023-03-23T06:13:46;98532.53;;;11.60;100.00
68941;BME280;55982;51.476;7.552;2023-03-23T06:16:11;98552.53;;;11.61;100.00
68941;BME280;55982;51.476;7.552;2023-03-23T06:18:37;98542.81;;;11.63;100.00
68941;BME280;55982;51.476;7.552;2023-03-23T06:21:06;98548.81;;;11.65;100.00
68941;BME280;55982;51.476;7.552;2023-03-23T06:23:31;98555.63;;;11.69;100.00
68941;BME280;55982;51.476;7.552;2023-03-23T06:26:00;98550.03;;;11.75;100.00
68941;BME280;55982;51.476;7.552;2023-03-23T06:28:26;98544.78;;;11.75;100.00
68941;BME280;55982;51.476;7.552;2023-03-23T06:30:52;98556.94;;;11.76;100.00
68941;BME280;55982;51.476;7.552;2023-03-23T06:33:18;98561.34;;;11.75;100.00
68941;BME280;55982;51.476;7.552;2023-03-23T06:35:43;98563.88;;;11.77;100.00
68941;BME280;55982;51.476;7.552;2023-03-23T06:38:09;98560.72;;;11.86;100.00
68941;BME280;55982;51.476;7.552;2023-03-23T06:40:34;98567.28;;;11.93;100.00
68941;BME280;55982;51.476;7.552;2023-03-23T06:43:01;98571.25;;;12.00;100.00
68941;BME280;55982;51.476;7.552;2023-03-23T06:45:27;98565.66;;;12.06;100.00
68941;BME280;55982;51.476;7.552;2023-03-23T06:47:52;98566.97;;;12.13;100.00
68941;BME280;55982;51.476;7.552;2023-03-23T06:50:18;98561.34;;;12.19;100.00
68941;BME280;55982;51.476;7.552;2023-03-23T06:52:47;98572.22;;;12.27;100.00
68941;BME280;55982;51.476;7.552;2023-03-23T06:55:14;98573.00;;;12.29;100.00
68941;BME280;55982;51.476;7.552;2023-03-23T06:57:41;98558.34;;;12.39;100.00
68941;BME280;55982;51.476;7.552;2023-03-23T07:00:08;98560.53;;;12.47;100.00
68941;BME280;55982;51.476;7.552;2023-03-23T07:02:36;98571.09;;;12.45;100.00
68941;BME280;55982;51.476;7.552;2023-03-23T07:05:01;98573.56;;;12.48;100.00
68941;BME280;55982;51.476;7.552;2023-03-23T07:07:29;98569.63;;;12.55;100.00
68941;BME280;55982;51.476;7.552;2023-03-23T07:09:54;98573.00;;;12.57;100.00
68941;BME280;55982;51.476;7.552;2023-03-23T07:12:20;98567.94;;;12.54;100.00
68941;BME280;55982;51.476;7.552;2023-03-23T07:14:46;98563.44;;;12.56;100.00
68941;BME280;55982;51.476;7.552;2023-03-23T07:17:12;98568.69;;;12.70;100.00
68941;BME280;55982;51.476;7.552;2023-03-23T07:19:38;98569.53;;;12.71;100.00
68941;BME280;55982;51.476;7.552;2023-03-23T07:22:05;98568.31;;;12.76;100.00
68941;BME280;55982;51.476;7.552;2023-03-23T07:24:31;98562.31;;;12.74;100.00
68941;BME280;55982;51.476;7.552;2023-03-23T07:26:56;98576.28;;;12.75;100.00
68941;BME280;55982;51.476;7.552;2023-03-23T07:29:22;98570.38;;;12.71;100.00
68941;BME280;55982;51.476;7.552;2023-03-23T07:31:47;98573.56;;;12.76;100.00
68941;BME280;55982;51.476;7.552;2023-03-23T07:34:12;98569.31;;;12.74;100.00
68941;BME280;55982;51.476;7.552;2023-03-23T07:36:38;98568.47;;;12.87;100.00
68941;BME280;55982;51.476;7.552;2023-03-23T07:39:04;98554.69;;;12.84;100.00
68941;BME280;55982;51.476;7.552;2023-03-23T07:41:31;98579.56;;;12.93;100.00
68941;BME280;55982;51.476;7.552;2023-03-23T07:43:57;98572.22;;;12.98;100.00
68941;BME280;55982;51.476;7.552;2023-03-23T07:46:22;98552.53;;;13.05;100.00
68941;BME280;55982;51.476;7.552;2023-03-23T07:48:47;98585.53;;;13.09;100.00
68941;BME280;55982;51.476;7.552;2023-03-23T07:51:14;98594.00;;;13.14;100.00
68941;BME280;55982;51.476;7.552;2023-03-23T07:53:41;98579.53;;;13.21;100.00
68941;BME280;55982;51.476;7.552;2023-03-23T07:56:10;98581.41;;;13.19;100.00
68941;BME280;55982;51.476;7.552;2023-03-23T07:58:36;98574.47;;;13.18;100.00
68941;BME280;55982;51.476;7.552;2023-03-23T08:01:02;98574.47;;;13.18;100.00
68941;BME280;55982;51.476;7.552;2023-03-23T08:03:27;98577.81;;;13.20;100.00
68941;BME280;55982;51.476;7.552;2023-03-23T08:05:53;98587.31;;;13.22;100.00
68941;BME280;55982;51.476;7.552;2023-03-23T08:08:18;98584.44;;;13.39;100.00
68941;BME280;55982;51.476;7.552;2023-03-23T08:10:44;98587.16;;;13.38;100.00
68941;BME280;55982;51.476;7.552;2023-03-23T08:13:09;98583.19;;;13.45;100.00
68941;BME280;55982;51.476;7.552;2023-03-23T08:15:35;98584.91;;;13.46;100.00
68941;BME280;55982;51.476;7.552;2023-03-23T08:18:03;98588.91;;;13.51;100.00
68941;BME280;55982;51.476;7.552;2023-03-23T08:20:30;98590.69;;;13.51;100.00
68941;BME280;55982;51.476;7.552;2023-03-23T08:22:56;98598.38;;;13.54;100.00
68941;BME280;55982;51.476;7.552;2023-03-23T08:25:23;98600.44;;;13.49;100.00
68941;BME280;55982;51.476;7.552;2023-03-23T08:27:49;98598.38;;;13.54;100.00
68941;BME280;55982;51.476;7.552;2023-03-23T08:30:17;98588.94;;;13.64;100.00
68941;BME280;55982;51.476;7.552;2023-03-23T08:32:44;98590.84;;;13.62;100.00
68941;BME280;55982;51.476;7.552;2023-03-23T08:35:11;98584.19;;;13.83;100.00
68941;BME280;55982;51.476;7.552;2023-03-23T08:37:37;98583.09;;;13.73;100.00
68941;BME280;55982;51.476;7.552;2023-03-23T08:40:04;98595.69;;;13.68;100.00
68941;BME280;55982;51.476;7.552;2023-03-23T08:42:35;98596.34;;;13.71;100.00
68941;BME280;55982;51.476;7.552;2023-03-23T08:45:00;98593.00;;;13.82;100.00
68941;BME280;55982;51.476;7.552;2023-03-23T08:47:26;98590.75;;;14.03;100.00
68941;BME280;55982;51.476;7.552;2023-03-23T08:49:51;98577.53;;;14.04;100.00
68941;BME280;55982;51.476;7.552;2023-03-23T08:52:19;98585.56;;;14.28;100.00
68941;BME280;55982;51.476;7.552;2023-03-23T08:54:45;98597.78;;;14.41;100.00
68941;BME280;55982;51.476;7.552;2023-03-23T08:57:13;98609.03;;;14.43;100.00
68941;BME280;55982;51.476;7.552;2023-03-23T08:59:40;98577.00;;;14.24;100.00
68941;BME280;55982;51.476;7.552;2023-03-23T09:02:09;98605.56;;;14.30;100.00
68941;BME280;55982;51.476;7.552;2023-03-23T09:04:35;98604.75;;;14.42;100.00
68941;BME280;55982;51.476;7.552;2023-03-23T09:07:01;98616.69;;;14.21;100.00
68941;BME280;55982;51.476;7.552;2023-03-23T09:09:28;98626.00;;;14.13;100.00
68941;BME280;55982;51.476;7.552;2023-03-23T09:11:53;98617.09;;;14.15;100.00
68941;BME280;55982;51.476;7.552;2023-03-23T09:14:19;98622.09;;;14.32;100.00
68941;BME280;55982;51.476;7.552;2023-03-23T09:16:44;98636.50;;;14.39;100.00
68941;BME280;55982;51.476;7.552;2023-03-23T09:19:10;98628.28;;;14.31;100.00
68941;BME280;55982;51.476;7.552;2023-03-23T09:21:36;98615.38;;;14.53;100.00
68941;BME280;55982;51.476;7.552;2023-03-23T09:24:01;98628.94;;;14.35;100.00
68941;BME280;55982;51.476;7.552;2023-03-23T09:26:27;98632.88;;;14.15;100.00
68941;BME280;55982;51.476;7.552;2023-03-23T09:28:53;98620.19;;;13.95;100.00
68941;BME280;55982;51.476;7.552;2023-03-23T09:31:18;98625.56;;;14.06;100.00
68941;BME280;55982;51.476;7.552;2023-03-23T09:33:47;98632.81;;;14.03;100.00
68941;BME280;55982;51.476;7.552;2023-03-23T09:36:16;98626.97;;;14.24;100.00
68941;BME280;55982;51.476;7.552;2023-03-23T09:38:43;98625.09;;;14.26;100.00
68941;BME280;55982;51.476;7.552;2023-03-23T09:46:49;98624.63;;;14.07;100.00
68941;BME280;55982;51.476;7.552;2023-03-23T09:49:42;98628.63;;;14.00;100.00
68941;BME280;55982;51.476;7.552;2023-03-23T09:52:14;98630.97;;;14.17;100.00
68941;BME280;55982;51.476;7.552;2023-03-23T09:54:46;98647.84;;;14.27;100.00
68941;BME280;55982;51.476;7.552;2023-03-23T09:57:18;98646.63;;;14.45;100.00
68941;BME280;55982;51.476;7.552;2023-03-23T10:00:10;98653.47;;;14.48;100.00
68941;BME280;55982;51.476;7.552;2023-03-23T10:02:56;98636.03;;;14.20;100.00
68941;BME280;55982;51.476;7.552;2023-03-23T10:05:41;98644.06;;;14.31;100.00
68941;BME280;55982;51.476;7.552;2023-03-23T10:08:13;98634.84;;;14.63;100.00
68941;BME280;55982;51.476;7.552;2023-03-23T10:16:08;98643.03;;;14.97;100.00
68941;BME280;55982;51.476;7.552;2023-03-23T10:18:47;98632.41;;;15.11;100.00
68941;BME280;55982;51.476;7.552;2023-03-23T10:21:20;98633.97;;;15.01;100.00
68941;BME280;55982;51.476;7.552;2023-03-23T10:29:13;98646.41;;;14.48;100.00
68941;BME280;55982;51.476;7.552;2023-03-23T10:31:45;98643.66;;;14.37;100.00
68941;BME280;55982;51.476;7.552;2023-03-23T10:34:28;98644.94;;;14.44;100.00
68941;BME280;55982;51.476;7.552;2023-03-23T10:37:21;98661.16;;;14.51;100.00
68941;BME280;55982;51.476;7.552;2023-03-23T10:39:58;98654.81;;;14.41;100.00
68941;BME280;55982;51.476;7.552;2023-03-23T10:42:30;98666.41;;;14.38;100.00
68941;BME280;55982;51.476;7.552;2023-03-23T10:44:59;98666.53;;;14.23;100.00
68941;BME280;55982;51.476;7.552;2023-03-23T10:47:25;98674.53;;;13.95;100.00
68941;BME280;55982;51.476;7.552;2023-03-23T10:49:55;98684.47;;;13.77;100.00
68941;BME280;55982;51.476;7.552;2023-03-23T10:52:35;98710.78;;;13.49;100.00
68941;BME280;55982;51.476;7.552;2023-03-23T10:55:09;98729.16;;;12.93;100.00
68941;BME280;55982;51.476;7.552;2023-03-23T10:57:37;98743.88;;;12.22;100.00
68941;BME280;55982;51.476;7.552;2023-03-23T11:00:07;98747.97;;;11.48;100.00
68941;BME280;55982;51.476;7.552;2023-03-23T11:02:40;98766.31;;;11.48;100.00
68941;BME280;55982;51.476;7.552;2023-03-23T11:05:16;98759.19;;;11.34;100.00
68941;BME280;55982;51.476;7.552;2023-03-23T11:07:48;98755.28;;;11.26;100.00
68941;BME280;55982;51.476;7.552;2023-03-23T11:10:20;98764.91;;;11.25;100.00
68941;BME280;55982;51.476;7.552;2023-03-23T11:12:46;98777.63;;;11.16;100.00
68941;BME280;55982;51.476;7.552;2023-03-23T11:15:32;98769.28;;;11.25;100.00
68941;BME280;55982;51.476;7.552;2023-03-23T11:18:10;98758.19;;;11.37;100.00
68941;BME280;55982;51.476;7.552;2023-03-23T11:20:48;98766.28;;;11.32;100.00
68941;BME280;55982;51.476;7.552;2023-03-23T11:23:23;98770.47;;;11.19;100.00
68941;BME280;55982;51.476;7.552;2023-03-23T11:26:14;98768.47;;;11.07;100.00
68941;BME280;55982;51.476;7.552;2023-03-23T11:29:04;98774.97;;;11.00;100.00
68941;BME280;55982;51.476;7.552;2023-03-23T11:31:36;98778.84;;;10.93;100.00
68941;BME280;55982;51.476;7.552;2023-03-23T11:34:10;98777.97;;;10.92;100.00
68941;BME280;55982;51.476;7.552;2023-03-23T11:36:41;98762.91;;;10.80;100.00
68941;BME280;55982;51.476;7.552;2023-03-23T11:39:20;98782.28;;;10.93;100.00
68941;BME280;55982;51.476;7.552;2023-03-23T11:41:47;98774.09;;;10.99;100.00
68941;BME280;55982;51.476;7.552;2023-03-23T11:44:13;98777.72;;;10.80;100.00
68941;BME280;55982;51.476;7.552;2023-03-23T11:51:59;98792.06;;;10.73;100.00
68941;BME280;55982;51.476;7.552;2023-03-23T11:54:37;98795.81;;;10.67;100.00
68941;BME280;55982;51.476;7.552;2023-03-23T11:57:09;98791.19;;;10.72;100.00
68941;BME280;55982;51.476;7.552;2023-03-23T11:59:37;98786.28;;;10.66;100.00
68941;BME280;55982;51.476;7.552;2023-03-23T12:20:45;98767.00;;;11.19;100.00
68941;BME280;55982;51.476;7.552;2023-03-23T12:23:23;98783.59;;;11.35;100.00
68941;BME280;55982;51.476;7.552;2023-03-23T12:26:16;98783.47;;;11.21;100.00
68941;BME280;55982;51.476;7.552;2023-03-23T12:32:01;98774.09;;;10.99;100.00
68941;BME280;55982;51.476;7.552;2023-03-23T12:34:50;98777.88;;;10.94;100.00
68941;BME280;55982;51.476;7.552;2023-03-23T12:43:21;98765.28;;;11.35;100.00
68941;BME280;55982;51.476;7.552;2023-03-23T12:49:07;98766.47;;;11.45;100.00
68941;BME280;55982;51.476;7.552;2023-03-23T12:54:34;98762.75;;;11.49;100.00
68941;BME280;55982;51.476;7.552;2023-03-23T13:02:21;98782.66;;;11.36;100.00
68941;BME280;55982;51.476;7.552;2023-03-23T13:04:54;98794.16;;;11.16;100.00
68941;BME280;55982;51.476;7.552;2023-03-23T13:07:26;98788.56;;;11.24;100.00
68941;BME280;55982;51.476;7.552;2023-03-23T13:10:21;98792.94;;;11.23;100.00
68941;BME280;55982;51.476;7.552;2023-03-23T13:12:48;98790.25;;;11.25;100.00
68941;BME280;55982;51.476;7.552;2023-03-23T13:23:58;98795.75;;;11.36;100.00
68941;BME280;55982;51.476;7.552;2023-03-23T13:26:24;98781.25;;;11.46;100.00
68941;BME280;55982;51.476;7.552;2023-03-23T13:31:29;98769.47;;;11.22;100.00
68941;BME280;55982;51.476;7.552;2023-03-23T13:34:19;98762.72;;;11.00;100.00
68941;BME280;55982;51.476;7.552;2023-03-23T13:39:34;98748.28;;;11.42;100.00
68941;BME280;55982;51.476;7.552;2023-03-23T13:42:05;98758.94;;;11.71;100.00
68941;BME280;55982;51.476;7.552;2023-03-23T13:47:26;98745.22;;;11.82;100.00
68941;BME280;55982;51.476;7.552;2023-03-23T13:49:55;98742.06;;;12.22;100.00
68941;BME280;55982;51.476;7.552;2023-03-23T14:03:31;98726.81;;;12.44;100.00
68941;BME280;55982;51.476;7.552;2023-03-23T14:11:01;98743.69;;;12.09;100.00
68941;BME280;55982;51.476;7.552;2023-03-23T14:13:33;98756.81;;;12.09;100.00
68941;BME280;55982;51.476;7.552;2023-03-23T14:16:14;98758.91;;;12.18;100.00
68941;BME280;55982;51.476;7.552;2023-03-23T14:18:47;98760.25;;;12.25;100.00
68941;BME280;55982;51.476;7.552;2023-03-23T14:21:17;98749.06;;;12.37;100.00
68941;BME280;55982;51.476;7.552;2023-03-23T14:23:46;98756.34;;;12.32;100.00
68941;BME280;55982;51.476;7.552;2023-03-23T14:26:15;98751.78;;;12.20;100.00
68941;BME280;55982;51.476;7.552;2023-03-23T14:28:44;98742.19;;;12.05;100.00
68941;BME280;55982;51.476;7.552;2023-03-23T14:31:24;98745.56;;;12.07;100.00
68941;BME280;55982;51.476;7.552;2023-03-23T14:33:51;98757.91;;;11.89;100.00
68941;BME280;55982;51.476;7.552;2023-03-23T14:36:27;98768.91;;;11.80;100.00
68941;BME280;55982;51.476;7.552;2023-03-23T14:41:37;98756.38;;;11.70;100.00
68941;BME280;55982;51.476;7.552;2023-03-23T14:44:06;98780.72;;;11.72;100.00
68941;BME280;55982;51.476;7.552;2023-03-23T14:46:32;98776.34;;;11.88;100.00
68941;BME280;55982;51.476;7.552;2023-03-23T14:49:02;98766.72;;;12.04;100.00
68941;BME280;55982;51.476;7.552;2023-03-23T14:51:29;98781.59;;;12.19;100.00
68941;BME280;55982;51.476;7.552;2023-03-23T14:53:57;98776.16;;;12.22;100.00
68941;BME280;55982;51.476;7.552;2023-03-23T14:56:23;98771.41;;;12.44;100.00